Time;durP1;ratioP1;P1;durP2;ratioP2;P2;SDS_P1;SDS_P2;PMS_P1;PMS_P2;Temp;Humidity;BMP_temperature;BMP_pressure;BME280_temperature;BME280_humidity;BME280_pressure;Samples;Min_cycle;Max_cycle;Signal;HPM_P1;HPM_P2
2024/01/13 00:02:01;;;;;;;1.37;1.37;;;;;;;-146.42;100.00;61981.06;4972563;28;20182;-64
2024/01/13 00:04:26;;;;;;;1.87;1.77;;;;;;;-146.42;100.00;61981.06;4974718;28;20215;-64
2024/01/13 00:06:53;;;;;;;2.63;1.37;;;;;;;-146.42;100.00;61981.06;4978322;28;20627;-64
2024/01/13 00:09:18;;;;;;;0.60;0.60;;;;;;;-146.42;100.00;61981.06;4973011;28;20956;-64
2024/01/13 00:11:44;;;;;;;0.63;0.63;;;;;;;-146.42;100.00;61981.06;4973256;28;20173;-64
2024/01/13 00:14:09;;;;;;;1.17;1.17;;;;;;;-146.42;100.00;61981.06;4972813;28;20644;-64
2024/01/13 00:16:35;;;;;;;0.70;0.70;;;;;;;-146.42;100.00;61981.06;4973150;28;20661;-64
2024/01/13 00:19:00;;;;;;;0.90;0.90;;;;;;;-146.42;100.00;61981.06;4972992;28;20181;-64
2024/01/13 00:21:26;;;;;;;9.07;3.47;;;;;;;-146.42;100.00;61981.06;4972803;28;20228;-65
2024/01/13 00:23:51;;;;;;;16.33;10.20;;;;;;;-146.42;100.00;61981.06;4972539;28;20218;-64
2024/01/13 00:26:17;;;;;;;0.70;0.70;;;;;;;-146.42;100.00;61981.06;4972825;28;20212;-65
2024/01/13 00:28:42;;;;;;;0.70;0.70;;;;;;;-146.42;100.00;61981.06;4972746;28;20268;-64
2024/01/13 00:31:07;;;;;;;0.97;0.90;;;;;;;-146.42;100.00;61981.06;4972697;28;20711;-64
2024/01/13 00:33:33;;;;;;;1.43;1.43;;;;;;;-146.42;100.00;61981.06;4972684;28;20204;-64
2024/01/13 00:35:59;;;;;;;1.70;1.70;;;;;;;-146.42;100.00;61981.06;4972492;28;20253;-64
2024/01/13 00:38:24;;;;;;;1.00;1.00;;;;;;;-146.42;100.00;61981.06;4972484;28;20236;-64
2024/01/13 00:40:50;;;;;;;1.57;1.47;;;;;;;-146.42;100.00;61981.06;4972716;28;20616;-64
2024/01/13 00:43:15;;;;;;;1.67;1.67;;;;;;;-146.42;100.00;61981.06;4972312;28;20189;-64
2024/01/13 00:45:41;;;;;;;0.70;0.70;;;;;;;-146.42;100.00;61981.06;4972465;28;20193;-64
2024/01/13 00:48:06;;;;;;;1.47;1.37;;;;;;;-146.42;100.00;61981.06;4972219;28;20240;-64
2024/01/13 00:50:33;;;;;;;0.60;0.60;;;;;;;-146.42;100.00;61981.06;4972441;28;20256;-64
2024/01/13 00:52:58;;;;;;;0.70;0.70;;;;;;;-146.42;100.00;61981.06;4964681;28;20221;-64
2024/01/13 00:55:24;;;;;;;0.70;0.70;;;;;;;-146.42;100.00;61981.06;4972342;28;20178;-64
2024/01/13 00:57:49;;;;;;;0.83;0.83;;;;;;;-146.42;100.00;61981.06;4972135;28;20582;-64
2024/01/13 01:00:15;;;;;;;0.70;0.70;;;;;;;-146.42;100.00;61981.06;4971579;28;20645;-64
2024/01/13 01:02:40;;;;;;;5.60;3.70;;;;;;;-146.42;100.00;61981.06;4971413;28;20256;-64
2024/01/13 01:05:06;;;;;;;0.60;0.60;;;;;;;-146.42;100.00;61981.06;4971712;28;20192;-64
2024/01/13 01:07:32;;;;;;;0.70;0.70;;;;;;;-146.42;100.00;61981.06;4971840;28;20252;-64
2024/01/13 01:09:58;;;;;;;1.37;1.30;;;;;;;-146.42;100.00;61981.06;4970488;28;20181;-64
2024/01/13 01:12:23;;;;;;;2.40;2.20;;;;;;;-146.42;100.00;61981.06;4971916;28;20189;-64
2024/01/13 01:14:49;;;;;;;0.80;0.80;;;;;;;-146.42;100.00;61981.06;4972297;28;20181;-64
2024/01/13 01:17:14;;;;;;;1.43;1.43;;;;;;;-146.42;100.00;61981.06;4971915;28;20249;-64
2024/01/13 01:19:39;;;;;;;0.70;0.70;;;;;;;-146.42;100.00;61981.06;4972012;28;20659;-63
2024/01/13 01:22:05;;;;;;;2.23;1.80;;;;;;;-146.42;100.00;61981.06;4972066;28;20186;-66
2024/01/13 01:24:31;;;;;;;0.60;0.60;;;;;;;-146.42;100.00;61981.06;4971903;28;20651;-66
2024/01/13 01:26:57;;;;;;;0.50;0.50;;;;;;;-146.42;100.00;61981.06;4971792;28;20224;-65
2024/01/13 01:29:22;;;;;;;1.53;1.37;;;;;;;-146.42;100.00;61981.06;4954743;28;20957;-65
2024/01/13 01:31:47;;;;;;;1.30;1.20;;;;;;;-146.42;100.00;61981.06;4971858;28;20209;-65
2024/01/13 01:34:13;;;;;;;4.00;1.33;;;;;;;-146.42;100.00;61981.06;4971704;28;20193;-65
2024/01/13 01:36:39;;;;;;;0.50;0.50;;;;;;;-146.42;100.00;61981.06;4954173;28;20190;-65
2024/01/13 01:39:04;;;;;;;0.70;0.70;;;;;;;-146.42;100.00;61981.06;4971798;28;20212;-65
2024/01/13 01:41:30;;;;;;;0.60;0.60;;;;;;;-146.42;100.00;61981.06;4954447;28;20201;-65
2024/01/13 01:43:56;;;;;;;1.27;1.27;;;;;;;-146.42;100.00;61981.06;4971558;28;20182;-65
2024/01/13 01:46:23;;;;;;;0.70;0.70;;;;;;;-146.42;100.00;61981.06;4971650;28;20178;-65
2024/01/13 01:48:56;;;;;;;0.50;0.50;;;;;;;-146.42;100.00;61981.06;4971492;28;20201;-65
2024/01/13 01:51:22;;;;;;;0.70;0.70;;;;;;;-146.42;100.00;61981.06;4971691;28;20177;-65
2024/01/13 01:53:50;;;;;;;4.00;3.80;;;;;;;-146.42;100.00;61981.06;4971477;28;20237;-65
2024/01/13 01:56:28;;;;;;;1.60;1.50;;;;;;;-146.42;100.00;61981.06;4971649;28;20257;-65
2024/01/13 01:58:54;;;;;;;0.67;0.67;;;;;;;-146.42;100.00;61981.06;4971589;28;20189;-65
2024/01/13 02:01:22;;;;;;;0.70;0.70;;;;;;;-146.42;100.00;61981.06;4971580;28;20655;-65
2024/01/13 02:03:49;;;;;;;0.87;0.83;;;;;;;-146.42;100.00;61981.06;4971353;28;20221;-65
2024/01/13 02:06:16;;;;;;;0.60;0.60;;;;;;;-146.42;100.00;61981.06;4971290;28;20582;-65
2024/01/13 02:08:42;;;;;;;0.50;0.50;;;;;;;-146.42;100.00;61981.06;4971583;28;20280;-65
2024/01/13 02:11:11;;;;;;;1.57;1.57;;;;;;;-146.42;100.00;61981.06;4971493;28;20782;-65
2024/01/13 02:13:37;;;;;;;2.77;1.23;;;;;;;-146.42;100.00;61981.06;4971326;28;20178;-66
2024/01/13 02:16:04;;;;;;;0.70;0.70;;;;;;;-146.42;100.00;61981.06;4971299;28;20188;-65
2024/01/13 02:18:29;;;;;;;2.43;2.37;;;;;;;-146.42;100.00;61981.06;4971441;28;20239;-65
2024/01/13 02:20:55;;;;;;;0.60;0.60;;;;;;;-146.42;100.00;61981.06;4971357;28;20679;-65
2024/01/13 02:23:20;;;;;;;0.60;0.60;;;;;;;-146.42;100.00;61981.06;4975061;28;20186;-65
2024/01/13 02:25:46;;;;;;;0.80;0.80;;;;;;;-146.42;100.00;61981.06;4975166;28;20186;-65
2024/01/13 02:28:11;;;;;;;0.70;0.70;;;;;;;-146.42;100.00;61981.06;4975108;28;20191;-65
2024/01/13 02:30:36;;;;;;;3.50;1.63;;;;;;;-146.42;100.00;61981.06;4975095;28;20197;-65
2024/01/13 02:33:02;;;;;;;0.60;0.60;;;;;;;-146.42;100.00;61981.06;4974957;28;20185;-65
2024/01/13 02:35:28;;;;;;;0.50;0.50;;;;;;;-146.42;100.00;61981.06;4974888;28;20240;-65
2024/01/13 02:37:53;;;;;;;2.70;2.60;;;;;;;-146.42;100.00;61981.06;4974992;28;20209;-65
2024/01/13 02:40:18;;;;;;;0.60;0.60;;;;;;;-146.42;100.00;61981.06;4957508;28;20201;-65
2024/01/13 02:42:44;;;;;;;0.70;0.70;;;;;;;-146.42;100.00;61981.06;4974724;28;20606;-65
2024/01/13 02:45:09;;;;;;;0.60;0.60;;;;;;;-146.42;100.00;61981.06;4974890;28;20232;-65
2024/01/13 02:47:47;;;;;;;0.60;0.60;;;;;;;-146.42;100.00;61981.06;4974738;28;20186;-65
2024/01/13 02:50:14;;;;;;;0.97;0.97;;;;;;;-146.42;100.00;61981.06;4969495;28;20190;-65
2024/01/13 02:52:40;;;;;;;0.63;0.63;;;;;;;-146.42;100.00;61981.06;4974707;28;20193;-64
2024/01/13 02:55:08;;;;;;;1.80;1.80;;;;;;;-146.42;100.00;61981.06;4974624;28;20174;-65
2024/01/13 02:57:34;;;;;;;0.70;0.70;;;;;;;-146.42;100.00;61981.06;4974852;28;20232;-65
2024/01/13 02:59:59;;;;;;;1.17;1.17;;;;;;;-146.42;100.00;61981.06;4974416;28;20660;-65
2024/01/13 03:02:25;;;;;;;0.70;0.70;;;;;;;-146.42;100.00;61981.06;4974377;28;20349;-65
2024/01/13 03:04:50;;;;;;;0.60;0.60;;;;;;;-146.42;100.00;61981.06;4974445;28;20569;-65
2024/01/13 03:07:16;;;;;;;0.60;0.60;;;;;;;-146.42;100.00;61981.06;4974308;28;20189;-65
2024/01/13 03:09:41;;;;;;;11.30;1.27;;;;;;;-146.42;100.00;61981.06;4974219;28;20188;-65
2024/01/13 03:12:07;;;;;;;1.00;1.00;;;;;;;-146.42;100.00;61981.06;4974193;28;20174;-65
2024/01/13 03:14:32;;;;;;;3.20;2.23;;;;;;;-146.42;100.00;61981.06;4974372;28;20248;-66
2024/01/13 03:16:58;;;;;;;1.33;1.10;;;;;;;-146.42;100.00;61981.06;4974261;28;20209;-65
2024/01/13 03:19:24;;;;;;;0.80;0.80;;;;;;;-146.42;100.00;61981.06;4974082;28;20632;-66
2024/01/13 03:21:49;;;;;;;0.80;0.80;;;;;;;-146.42;100.00;61981.06;4974053;28;20309;-65
2024/01/13 03:24:15;;;;;;;1.43;0.90;;;;;;;-146.42;100.00;61981.06;4974206;28;20182;-64
2024/01/13 03:26:40;;;;;;;0.60;0.60;;;;;;;-146.42;100.00;61981.06;4974045;28;20644;-65
2024/01/13 03:29:06;;;;;;;0.80;0.80;;;;;;;-146.42;100.00;61981.06;4979315;28;20181;-65
2024/01/13 03:31:31;;;;;;;1.00;1.00;;;;;;;-146.42;100.00;61981.06;4974182;28;20182;-65
2024/01/13 03:33:57;;;;;;;2.73;2.50;;;;;;;-146.42;100.00;61981.06;4973350;28;20284;-64
2024/01/13 03:36:22;;;;;;;0.80;0.80;;;;;;;-146.42;100.00;61981.06;4973757;28;20196;-64
2024/01/13 03:38:48;;;;;;;2.00;1.90;;;;;;;-146.42;100.00;61981.06;4973797;28;20174;-65
2024/01/13 03:41:17;;;;;;;2.23;2.13;;;;;;;-146.42;100.00;61981.06;4973602;28;20636;-64
2024/01/13 03:43:42;;;;;;;1.43;1.33;;;;;;;-146.42;100.00;61981.06;4973846;28;20269;-64
2024/01/13 03:46:08;;;;;;;4.97;2.33;;;;;;;-146.42;100.00;61981.06;4973593;28;20252;-65
2024/01/13 03:48:33;;;;;;;1.40;1.30;;;;;;;-146.42;100.00;61981.06;4973380;28;20200;-65
2024/01/13 03:50:59;;;;;;;0.60;0.60;;;;;;;-146.42;100.00;61981.06;4973705;28;20647;-65
2024/01/13 03:53:25;;;;;;;0.50;0.50;;;;;;;-146.42;100.00;61981.06;4973634;28;20186;-65
2024/01/13 03:55:50;;;;;;;1.03;1.03;;;;;;;-146.42;100.00;61981.06;4973303;28;20189;-65
2024/01/13 03:58:16;;;;;;;0.60;0.60;;;;;;;-146.42;100.00;61981.06;4973473;28;20212;-65
2024/01/13 04:00:42;;;;;;;0.80;0.80;;;;;;;-146.42;100.00;61981.06;4973359;28;20682;-65
2024/01/13 04:03:07;;;;;;;1.17;1.17;;;;;;;-146.42;100.00;61981.06;4973307;28;20229;-65
2024/01/13 04:05:34;;;;;;;0.60;0.60;;;;;;;-146.42;100.00;61981.06;4973164;28;20185;-65
2024/01/13 04:07:59;;;;;;;0.60;0.60;;;;;;;-146.42;100.00;61981.06;4977862;28;20620;-65
2024/01/13 04:10:25;;;;;;;0.77;0.77;;;;;;;-146.42;100.00;61981.06;4992556;28;20204;-65
2024/01/13 04:12:50;;;;;;;1.03;1.03;;;;;;;-146.42;100.00;61981.06;4992667;28;20219;-65
2024/01/13 04:15:16;;;;;;;0.80;0.80;;;;;;;-146.42;100.00;61981.06;4975399;28;20941;-65
2024/01/13 04:17:42;;;;;;;0.60;0.60;;;;;;;-146.42;100.00;61981.06;4992500;28;20638;-65
2024/01/13 04:20:08;;;;;;;0.70;0.70;;;;;;;-146.42;100.00;61981.06;4992453;28;20216;-65
2024/01/13 04:22:33;;;;;;;0.70;0.70;;;;;;;-146.42;100.00;61981.06;4992507;28;20204;-65
2024/01/13 04:24:58;;;;;;;1.57;1.53;;;;;;;-146.42;100.00;61981.06;4992216;28;20177;-65
2024/01/13 04:27:24;;;;;;;0.80;0.80;;;;;;;-146.42;100.00;61981.06;4992279;28;20585;-65
2024/01/13 04:29:50;;;;;;;0.93;0.93;;;;;;;-146.42;100.00;61981.06;4974829;28;20215;-65
2024/01/13 04:32:15;;;;;;;0.70;0.70;;;;;;;-146.42;100.00;61981.06;4992275;28;20214;-65
2024/01/13 04:34:42;;;;;;;1.40;1.40;;;;;;;-146.42;100.00;61981.06;4992167;28;20229;-65
2024/01/13 04:37:07;;;;;;;0.90;0.90;;;;;;;-146.42;100.00;61981.06;4992062;28;20189;-65
2024/01/13 04:39:33;;;;;;;0.60;0.60;;;;;;;-146.42;100.00;61981.06;4992089;28;20187;-64
2024/01/13 04:41:58;;;;;;;1.50;1.40;;;;;;;-146.42;100.00;61981.06;4991967;28;20209;-65
2024/01/13 04:44:24;;;;;;;1.27;1.27;;;;;;;-146.42;100.00;61981.06;4991494;28;20185;-64
2024/01/13 04:46:49;;;;;;;4.80;3.13;;;;;;;-146.42;100.00;61981.06;4991466;28;20181;-64
2024/01/13 04:49:15;;;;;;;0.90;0.90;;;;;;;-146.42;100.00;61981.06;4974405;28;20189;-64
2024/01/13 04:51:40;;;;;;;3.83;3.53;;;;;;;-146.42;100.00;61981.06;4992014;28;20189;-64
2024/01/13 04:54:06;;;;;;;0.70;0.70;;;;;;;-146.42;100.00;61981.06;4991857;28;20185;-65
2024/01/13 04:56:31;;;;;;;0.80;0.80;;;;;;;-146.42;100.00;61981.06;4991844;28;20266;-65
2024/01/13 04:58:57;;;;;;;0.70;0.70;;;;;;;-146.42;100.00;61981.06;4991692;28;20185;-64
2024/01/13 05:01:23;;;;;;;0.70;0.70;;;;;;;-146.42;100.00;61981.06;4991659;28;20293;-65
2024/01/13 05:03:48;;;;;;;0.60;0.60;;;;;;;-146.42;100.00;61981.06;4991586;28;20300;-64
2024/01/13 05:06:17;;;;;;;2.30;2.20;;;;;;;-146.42;100.00;61981.06;4991565;28;20668;-64
2024/01/13 05:08:42;;;;;;;0.70;0.70;;;;;;;-146.42;100.00;61981.06;4991699;28;20517;-64
2024/01/13 05:11:08;;;;;;;0.60;0.60;;;;;;;-146.42;100.00;61981.06;4970658;28;20232;-64
2024/01/13 05:13:33;;;;;;;0.60;0.60;;;;;;;-146.42;100.00;61981.06;4971842;28;20213;-64
2024/01/13 05:15:59;;;;;;;0.93;0.93;;;;;;;-146.42;100.00;61981.06;4971930;28;20264;-65
2024/01/13 05:18:26;;;;;;;0.60;0.60;;;;;;;-146.42;100.00;61981.06;4971786;28;20216;-65
2024/01/13 05:20:52;;;;;;;0.67;0.67;;;;;;;-146.42;100.00;61981.06;4971775;28;20292;-65
2024/01/13 05:23:17;;;;;;;1.27;1.27;;;;;;;-146.42;100.00;61981.06;4971889;28;20694;-64
2024/01/13 05:25:43;;;;;;;0.80;0.80;;;;;;;-146.42;100.00;61981.06;4971804;28;20194;-65
2024/01/13 05:28:08;;;;;;;0.60;0.60;;;;;;;-146.42;100.00;61981.06;4954615;28;20658;-64
2024/01/13 05:30:34;;;;;;;0.60;0.60;;;;;;;-146.42;100.00;61981.06;4971794;28;20212;-65
2024/01/13 05:33:01;;;;;;;0.83;0.83;;;;;;;-146.42;100.00;61981.06;4971880;28;20174;-65
2024/01/13 05:35:26;;;;;;;0.60;0.60;;;;;;;-146.42;100.00;61981.06;4971895;28;20189;-65
2024/01/13 05:37:52;;;;;;;0.87;0.87;;;;;;;-146.42;100.00;61981.06;4972084;28;20239;-65
2024/01/13 05:40:19;;;;;;;2.07;1.97;;;;;;;-146.42;100.00;61981.06;4971648;28;20209;-65
2024/01/13 05:42:46;;;;;;;0.93;0.93;;;;;;;-146.42;100.00;61981.06;4971820;28;20655;-65
2024/01/13 05:45:12;;;;;;;3.53;3.33;;;;;;;-146.42;100.00;61981.06;4954688;28;20181;-65
2024/01/13 05:47:37;;;;;;;0.50;0.50;;;;;;;-146.42;100.00;61981.06;4971818;28;20186;-64
2024/01/13 05:50:04;;;;;;;0.77;0.77;;;;;;;-146.42;100.00;61981.06;4971621;28;20177;-65
2024/01/13 05:52:30;;;;;;;0.60;0.60;;;;;;;-146.42;100.00;61981.06;4971663;28;20182;-65
2024/01/13 05:54:56;;;;;;;14.63;4.67;;;;;;;-146.42;100.00;61981.06;4989454;28;20176;-64
2024/01/13 05:57:21;;;;;;;2.40;1.15;;;;;;;-146.42;100.00;61981.06;4992238;28;20433;-65
2024/01/13 05:59:47;;;;;;;0.73;0.73;;;;;;;-146.42;100.00;61981.06;4994845;28;20189;-64
2024/01/13 06:02:13;;;;;;;0.60;0.60;;;;;;;-146.42;100.00;61981.06;4994930;28;20279;-65
2024/01/13 06:04:39;;;;;;;7.03;5.30;;;;;;;-146.42;100.00;61981.06;4994900;28;20647;-64
2024/01/13 06:07:05;;;;;;;0.80;0.80;;;;;;;-146.42;100.00;61981.06;4974676;28;20256;-64
2024/01/13 06:09:31;;;;;;;2.20;2.10;;;;;;;-146.42;100.00;61981.06;4975414;28;20197;-64
2024/01/13 06:11:57;;;;;;;3.67;3.47;;;;;;;-146.42;100.00;61981.06;4974507;28;20536;-64
2024/01/13 06:14:23;;;;;;;1.50;1.33;;;;;;;-146.42;100.00;61981.06;4975121;28;20403;-64
2024/01/13 06:16:48;;;;;;;1.07;1.07;;;;;;;-146.42;100.00;61981.06;4975149;28;20703;-64
2024/01/13 06:19:14;;;;;;;1.43;1.33;;;;;;;-146.42;100.00;61981.06;4974820;28;20681;-64
2024/01/13 06:21:43;;;;;;;1.03;1.03;;;;;;;-146.42;100.00;61981.06;4974843;28;20205;-64
2024/01/13 06:24:10;;;;;;;0.63;0.63;;;;;;;-146.42;100.00;61981.06;4973922;28;20188;-64
2024/01/13 06:26:40;;;;;;;0.77;0.77;;;;;;;-146.42;100.00;61981.06;4975065;28;20550;-65
2024/01/13 06:29:06;;;;;;;0.70;0.70;;;;;;;-146.42;100.00;61981.06;4975154;28;20651;-64
2024/01/13 06:31:32;;;;;;;1.90;1.80;;;;;;;-146.42;100.00;61981.06;4975072;28;20173;-64
2024/01/13 06:33:57;;;;;;;1.10;1.00;;;;;;;-146.42;100.00;61981.06;4975098;28;20181;-64
2024/01/13 06:36:23;;;;;;;0.60;0.60;;;;;;;-146.42;100.00;61981.06;4974829;28;20197;-64
2024/01/13 06:38:48;;;;;;;0.60;0.60;;;;;;;-146.42;100.00;61981.06;4974887;28;20185;-65
2024/01/13 06:41:14;;;;;;;0.60;0.60;;;;;;;-146.42;100.00;61981.06;4974919;28;20632;-64
2024/01/13 06:43:39;;;;;;;1.20;1.20;;;;;;;-146.42;100.00;61981.06;4974991;28;20193;-64
2024/01/13 06:46:08;;;;;;;1.20;1.10;;;;;;;-146.42;100.00;61981.06;4974332;28;20186;-64
2024/01/13 06:48:34;;;;;;;3.30;3.03;;;;;;;-146.42;100.00;61981.06;4974943;28;20185;-64
2024/01/13 06:50:59;;;;;;;0.60;0.60;;;;;;;-146.42;100.00;61981.06;4974685;28;20196;-64
2024/01/13 06:53:25;;;;;;;0.80;0.80;;;;;;;-146.42;100.00;61981.06;4985159;28;20677;-64
2024/01/13 06:55:51;;;;;;;1.50;1.50;;;;;;;-146.42;100.00;61981.06;4976353;28;20316;-64
2024/01/13 06:58:17;;;;;;;3.80;3.50;;;;;;;-146.42;100.00;61981.06;4993643;28;20208;-64
2024/01/13 07:00:42;;;;;;;0.60;0.60;;;;;;;-146.42;100.00;61981.06;4993614;28;20324;-65
2024/01/13 07:03:08;;;;;;;0.50;0.50;;;;;;;-146.42;100.00;61981.06;4993921;28;20271;-64
2024/01/13 07:05:33;;;;;;;0.87;0.87;;;;;;;-146.42;100.00;61981.06;4993415;28;20177;-64
2024/01/13 07:08:00;;;;;;;3.57;3.03;;;;;;;-146.42;100.00;61981.06;4992462;28;20181;-65
2024/01/13 07:10:27;;;;;;;0.60;0.60;;;;;;;-146.42;100.00;61981.06;4976083;28;20581;-65
2024/01/13 07:12:52;;;;;;;0.73;0.73;;;;;;;-146.42;100.00;61981.06;4993679;28;20184;-65
2024/01/13 07:15:18;;;;;;;0.90;0.90;;;;;;;-146.42;100.00;61981.06;4977445;28;20185;-65
2024/01/13 07:17:43;;;;;;;0.63;0.63;;;;;;;-146.42;100.00;61981.06;4973956;28;20196;-65
2024/01/13 07:20:09;;;;;;;2.83;1.97;;;;;;;-146.42;100.00;61981.06;4973888;28;20563;-66
2024/01/13 07:22:34;;;;;;;1.13;1.13;;;;;;;-146.42;100.00;61981.06;4974100;28;20574;-66
2024/01/13 07:25:00;;;;;;;3.30;3.03;;;;;;;-146.42;100.00;61981.06;4970577;28;20181;-66
2024/01/13 07:27:26;;;;;;;0.80;0.80;;;;;;;-146.42;100.00;61981.06;4993388;28;20188;-65
2024/01/13 07:29:51;;;;;;;1.57;1.43;;;;;;;-146.42;100.00;61981.06;4993581;28;20960;-65
2024/01/13 07:32:17;;;;;;;0.70;0.70;;;;;;;-146.42;100.00;61981.06;4993080;28;20631;-65
2024/01/13 07:34:42;;;;;;;0.70;0.70;;;;;;;-146.42;100.00;61981.06;4993102;28;20180;-65
2024/01/13 07:37:08;;;;;;;4.33;1.37;;;;;;;-146.42;100.00;61981.06;4975882;28;20281;-66
2024/01/13 07:39:34;;;;;;;1.17;1.17;;;;;;;-146.42;100.00;61981.06;4993353;28;20247;-66
2024/01/13 07:41:59;;;;;;;2.83;2.73;;;;;;;-146.42;100.00;61981.06;4992801;28;20236;-66
2024/01/13 07:44:25;;;;;;;0.80;0.80;;;;;;;-146.42;100.00;61981.06;4992997;28;20203;-65
2024/01/13 07:46:53;;;;;;;0.60;0.60;;;;;;;-146.42;100.00;61981.06;4993068;28;20180;-66
2024/01/13 07:49:18;;;;;;;0.83;0.83;;;;;;;-146.42;100.00;61981.06;4983896;28;20185;-66
2024/01/13 07:51:49;;;;;;;1.20;1.20;;;;;;;-146.42;100.00;61981.06;4973473;28;20229;-66
2024/01/13 07:54:15;;;;;;;1.33;0.70;;;;;;;-146.42;100.00;61981.06;4973450;28;20177;-66
2024/01/13 07:56:41;;;;;;;1.77;1.77;;;;;;;-146.42;100.00;61981.06;4973317;28;20632;-65
2024/01/13 07:59:07;;;;;;;0.87;0.87;;;;;;;-146.42;100.00;61981.06;4973552;28;20178;-65
2024/01/13 08:01:32;;;;;;;1.50;1.50;;;;;;;-146.42;100.00;61981.06;4973384;28;20268;-66
2024/01/13 08:03:58;;;;;;;0.93;0.93;;;;;;;-146.42;100.00;61981.06;4972637;28;20691;-65
2024/01/13 08:06:24;;;;;;;0.50;0.50;;;;;;;-146.42;100.00;61981.06;4972717;28;20198;-65
2024/01/13 08:08:50;;;;;;;0.73;0.73;;;;;;;-146.42;100.00;61981.06;4972708;28;20213;-65
2024/01/13 08:11:15;;;;;;;2.73;2.10;;;;;;;-146.42;100.00;61981.06;4972694;28;20178;-65
2024/01/13 08:13:41;;;;;;;0.60;0.60;;;;;;;-146.42;100.00;61981.06;4972158;28;20213;-64
2024/01/13 08:16:08;;;;;;;1.03;1.03;;;;;;;-146.42;100.00;61981.06;4972506;28;20206;-64
2024/01/13 08:18:34;;;;;;;1.17;1.17;;;;;;;-146.42;100.00;61981.06;4972688;28;20221;-65
2024/01/13 08:20:59;;;;;;;0.60;0.60;;;;;;;-146.42;100.00;61981.06;4972897;28;20217;-65
2024/01/13 08:23:25;;;;;;;1.43;1.37;;;;;;;-146.42;100.00;61981.06;4972990;28;20188;-65
2024/01/13 08:25:50;;;;;;;0.50;0.50;;;;;;;-146.42;100.00;61981.06;4972809;28;20726;-66
2024/01/13 08:28:16;;;;;;;1.23;1.00;;;;;;;-146.42;100.00;61981.06;4972773;28;20188;-66
2024/01/13 08:30:41;;;;;;;3.80;3.37;;;;;;;-146.42;100.00;61981.06;4972699;28;20237;-67
2024/01/13 08:33:07;;;;;;;4.73;2.77;;;;;;;-146.42;100.00;61981.06;4972749;28;20281;-67
2024/01/13 08:35:32;;;;;;;1.13;1.13;;;;;;;-146.42;100.00;61981.06;4972567;28;20186;-67
2024/01/13 08:37:57;;;;;;;3.70;2.50;;;;;;;-146.42;100.00;61981.06;4972416;28;20182;-66
2024/01/13 08:40:23;;;;;;;3.17;2.97;;;;;;;-146.42;100.00;61981.06;4972452;28;20202;-66
2024/01/13 08:42:49;;;;;;;1.70;1.53;;;;;;;-146.42;100.00;61981.06;4972767;28;20178;-66
2024/01/13 08:45:15;;;;;;;0.57;0.57;;;;;;;-146.42;100.00;61981.06;4972406;28;20177;-66
2024/01/13 08:47:41;;;;;;;2.23;1.00;;;;;;;-146.42;100.00;61981.06;4972312;28;20196;-66
2024/01/13 08:50:07;;;;;;;0.60;0.60;;;;;;;-146.42;100.00;61981.06;4972152;28;20594;-66
2024/01/13 08:52:32;;;;;;;2.47;1.37;;;;;;;-146.42;100.00;61981.06;4972256;28;20186;-66
2024/01/13 08:54:58;;;;;;;0.93;0.93;;;;;;;-146.42;100.00;61981.06;4971963;28;20178;-66
2024/01/13 08:57:23;;;;;;;1.33;1.20;;;;;;;-146.42;100.00;61981.06;4972066;28;20181;-66
2024/01/13 08:59:48;;;;;;;1.47;1.37;;;;;;;-146.42;100.00;61981.06;4972428;28;20893;-67
2024/01/13 09:02:14;;;;;;;16.33;6.93;;;;;;;-146.42;100.00;61981.06;4971841;28;20233;-66
2024/01/13 09:04:39;;;;;;;0.53;0.53;;;;;;;-146.42;100.00;61981.06;4971735;28;20181;-66
2024/01/13 09:07:05;;;;;;;0.60;0.60;;;;;;;-146.42;100.00;61981.06;4971247;28;20178;-66
2024/01/13 09:09:31;;;;;;;3.67;3.43;;;;;;;-146.42;100.00;61981.06;4954299;28;20178;-66
2024/01/13 09:11:57;;;;;;;3.23;3.03;;;;;;;-146.42;100.00;61981.06;4971417;28;20178;-66
2024/01/13 09:14:22;;;;;;;0.90;0.90;;;;;;;-146.42;100.00;61981.06;4971677;28;20317;-66
2024/01/13 09:16:48;;;;;;;4.70;4.40;;;;;;;-146.42;100.00;61981.06;4971457;28;20252;-67
2024/01/13 09:19:13;;;;;;;0.70;0.70;;;;;;;-146.42;100.00;61981.06;4971739;28;20328;-66
2024/01/13 09:21:39;;;;;;;0.83;0.83;;;;;;;-146.42;100.00;61981.06;4971733;28;20198;-66
2024/01/13 09:24:06;;;;;;;4.57;4.23;;;;;;;-146.42;100.00;61981.06;4971642;28;20178;-66
2024/01/13 09:26:32;;;;;;;1.37;1.37;;;;;;;-146.42;100.00;61981.06;4971988;28;20264;-66
2024/01/13 09:28:57;;;;;;;1.23;1.23;;;;;;;-146.42;100.00;61981.06;4954233;28;20320;-66
2024/01/13 09:31:23;;;;;;;1.93;1.83;;;;;;;-146.42;100.00;61981.06;4971081;28;20580;-66
2024/01/13 09:33:48;;;;;;;2.13;1.90;;;;;;;-146.42;100.00;61981.06;4971345;28;20181;-66
2024/01/13 09:36:14;;;;;;;0.87;0.87;;;;;;;-146.42;100.00;61981.06;4971734;28;20189;-66
2024/01/13 09:38:39;;;;;;;2.20;2.10;;;;;;;-146.42;100.00;61981.06;4971498;28;20288;-67
2024/01/13 09:41:05;;;;;;;0.70;0.70;;;;;;;-146.42;100.00;61981.06;4971226;28;20198;-67
2024/01/13 09:43:48;;;;;;;2.17;2.07;;;;;;;-146.42;100.00;61981.06;4954230;28;20606;-66
2024/01/13 09:46:14;;;;;;;0.40;0.40;;;;;;;-146.42;100.00;61981.06;4981806;28;20188;-66
2024/01/13 09:48:40;;;;;;;0.83;0.83;;;;;;;-146.42;100.00;61981.06;4990683;28;20235;-66
2024/01/13 09:51:07;;;;;;;0.70;0.70;;;;;;;-146.42;100.00;61981.06;4990563;28;20188;-66
2024/01/13 09:53:39;;;;;;;1.17;1.17;;;;;;;-146.42;100.00;61981.06;4990719;28;20239;-66
2024/01/13 09:56:11;;;;;;;0.53;0.53;;;;;;;-146.42;100.00;61981.06;4968297;28;20181;-66
2024/01/13 09:58:38;;;;;;;0.50;0.50;;;;;;;-146.42;100.00;61981.06;4971204;28;20564;-66
2024/01/13 10:01:06;;;;;;;2.00;1.83;;;;;;;-146.42;100.00;61981.06;4970764;28;20276;-67
2024/01/13 10:03:32;;;;;;;0.67;0.67;;;;;;;-146.42;100.00;61981.06;4985467;28;20736;-66
2024/01/13 10:05:59;;;;;;;0.67;0.67;;;;;;;-146.42;100.00;61981.06;4989072;28;20299;-66
2024/01/13 10:08:32;;;;;;;2.30;2.00;;;;;;;-146.42;100.00;61981.06;4971651;28;20322;-66
2024/01/13 10:11:02;;;;;;;0.70;0.70;;;;;;;-146.42;100.00;61981.06;4970748;28;20192;-66
2024/01/13 10:13:29;;;;;;;2.17;2.07;;;;;;;-146.42;100.00;61981.06;4970709;28;20185;-66
2024/01/13 10:15:55;;;;;;;1.00;1.00;;;;;;;-146.42;100.00;61981.06;4970676;28;20693;-66
2024/01/13 10:18:22;;;;;;;1.90;1.27;;;;;;;-146.42;100.00;61981.06;4970541;28;20268;-66
2024/01/13 10:20:48;;;;;;;1.90;1.80;;;;;;;-146.42;100.00;61981.06;4971108;28;20268;-66
2024/01/13 10:23:15;;;;;;;1.77;1.67;;;;;;;-146.42;100.00;61981.06;4970268;28;20182;-66
2024/01/13 10:25:40;;;;;;;0.80;0.80;;;;;;;-146.42;100.00;61981.06;4970827;28;20270;-66
2024/01/13 10:28:06;;;;;;;0.60;0.60;;;;;;;-146.42;100.00;61981.06;4970552;28;20273;-66
2024/01/13 10:30:31;;;;;;;0.80;0.80;;;;;;;-146.42;100.00;61981.06;4970373;28;20675;-66
2024/01/13 10:33:02;;;;;;;1.17;1.17;;;;;;;-146.42;100.00;61981.06;4970560;28;20289;-66
2024/01/13 10:35:27;;;;;;;0.90;0.90;;;;;;;-146.42;100.00;61981.06;4970467;28;20212;-66
2024/01/13 10:37:57;;;;;;;2.13;2.07;;;;;;;-146.42;100.00;61981.06;4970495;28;20205;-66
2024/01/13 10:40:22;;;;;;;1.47;1.37;;;;;;;-146.42;100.00;61981.06;4970290;28;20205;-66
2024/01/13 10:42:53;;;;;;;0.50;0.50;;;;;;;-146.42;100.00;61981.06;4971652;28;20183;-66
2024/01/13 10:45:22;;;;;;;0.50;0.50;;;;;;;-146.42;100.00;61981.06;4956248;28;20629;-66
2024/01/13 10:47:52;;;;;;;1.30;1.23;;;;;;;-146.42;100.00;61981.06;4975815;28;20244;-65
2024/01/13 10:50:18;;;;;;;0.50;0.50;;;;;;;-146.42;100.00;61981.06;4957230;28;20634;-66
2024/01/13 10:53:15;;;;;;;1.03;1.03;;;;;;;-146.42;100.00;61981.06;4956872;28;20196;-66
2024/01/13 10:55:42;;;;;;;2.20;2.10;;;;;;;-146.42;100.00;61981.06;4968672;28;20205;-66
2024/01/13 10:58:09;;;;;;;0.50;0.50;;;;;;;-146.42;100.00;61981.06;4974231;28;20651;-66
2024/01/13 11:00:37;;;;;;;1.23;1.23;;;;;;;-146.42;100.00;61981.06;4973592;28;20265;-66
2024/01/13 11:03:04;;;;;;;3.27;1.63;;;;;;;-146.42;100.00;61981.06;4973751;28;20759;-66
2024/01/13 11:05:34;;;;;;;1.00;1.00;;;;;;;-146.42;100.00;61981.06;4973937;28;20184;-66